ESNQ

Kiruna Airport

Sweden
METAR ESNQ 191450Z 21008KT CAVOK M04/M08 Q1027
Observed Flight Rules
Nov-19 @ 14:50 UTC (50 minutes ago) Visual Flight Rules
Wind Visibility Clouds
210° at 8 knots 10,000+ meters
  • Clear skies
Temperatures Readings
Current -4°C / 25°F
Dewpoint -8°C / 18°F
Humidity 74%
Altimeter 30.32" Hg
Pressure 1027 hPa
Elevation 452
METAR ESNQ 191450Z 21008KT CAVOK M04/M08 Q1027
Observed Flight Rules
Nov-19 @ 14:50 UTC
(50 minutes ago)
VFR
Wind Visibility
210° at 8 knots 10,000+ meters
Clouds
  • Clear skies
Temperature Dewpoint
-4°C / 25°F -8°C / 18°F
Humidity Altimeter Pressure
74% 30.32" Hg 1027 hPa